sensor_id;sensor_type;location;lat;lon;timestamp;P1;durP1;ratioP1;P2;durP2;ratioP2
74044;SDS011;62389;51.412;5.436;2023-01-19T00:01:17;17.48;;;9.40;;
74044;SDS011;62389;51.412;5.436;2023-01-19T00:03:43;22.15;;;10.27;;
74044;SDS011;62389;51.412;5.436;2023-01-19T00:06:08;20.10;;;10.13;;
74044;SDS011;62389;51.412;5.436;2023-01-19T00:08:34;18.23;;;9.82;;
74044;SDS011;62389;51.412;5.436;2023-01-19T00:11:00;19.80;;;11.27;;
74044;SDS011;62389;51.412;5.436;2023-01-19T00:13:25;17.58;;;9.93;;
74044;SDS011;62389;51.412;5.436;2023-01-19T00:15:51;20.38;;;9.65;;
74044;SDS011;62389;51.412;5.436;2023-01-19T00:18:16;15.70;;;8.43;;
74044;SDS011;62389;51.412;5.436;2023-01-19T00:20:43;17.25;;;9.50;;
74044;SDS011;62389;51.412;5.436;2023-01-19T00:23:10;21.10;;;10.05;;
74044;SDS011;62389;51.412;5.436;2023-01-19T00:25:35;18.50;;;8.52;;
74044;SDS011;62389;51.412;5.436;2023-01-19T00:28:06;22.95;;;9.02;;
74044;SDS011;62389;51.412;5.436;2023-01-19T00:30:32;15.90;;;9.25;;
74044;SDS011;62389;51.412;5.436;2023-01-19T00:32:57;20.55;;;9.40;;
74044;SDS011;62389;51.412;5.436;2023-01-19T00:35:23;19.02;;;9.20;;
74044;SDS011;62389;51.412;5.436;2023-01-19T00:37:48;17.83;;;9.10;;
74044;SDS011;62389;51.412;5.436;2023-01-19T00:40:14;16.83;;;9.27;;
74044;SDS011;62389;51.412;5.436;2023-01-19T00:42:40;19.65;;;11.13;;
74044;SDS011;62389;51.412;5.436;2023-01-19T00:45:09;20.05;;;9.48;;
74044;SDS011;62389;51.412;5.436;2023-01-19T00:47:36;20.05;;;10.13;;
74044;SDS011;62389;51.412;5.436;2023-01-19T00:50:03;21.02;;;11.43;;
74044;SDS011;62389;51.412;5.436;2023-01-19T00:52:29;18.63;;;10.20;;
74044;SDS011;62389;51.412;5.436;2023-01-19T00:54:54;19.20;;;9.98;;
74044;SDS011;62389;51.412;5.436;2023-01-19T00:57:20;19.10;;;9.95;;
74044;SDS011;62389;51.412;5.436;2023-01-19T00:59:45;17.60;;;9.02;;
74044;SDS011;62389;51.412;5.436;2023-01-19T01:02:11;16.77;;;8.90;;
74044;SDS011;62389;51.412;5.436;2023-01-19T01:04:36;21.58;;;10.52;;
74044;SDS011;62389;51.412;5.436;2023-01-19T01:07:02;18.40;;;9.88;;
74044;SDS011;62389;51.412;5.436;2023-01-19T01:09:28;16.48;;;8.77;;
74044;SDS011;62389;51.412;5.436;2023-01-19T01:11:53;17.33;;;8.80;;
74044;SDS011;62389;51.412;5.436;2023-01-19T01:14:19;16.58;;;9.55;;
74044;SDS011;62389;51.412;5.436;2023-01-19T01:16:44;19.88;;;8.45;;
74044;SDS011;62389;51.412;5.436;2023-01-19T01:19:10;21.77;;;10.85;;
74044;SDS011;62389;51.412;5.436;2023-01-19T01:21:36;20.85;;;9.32;;
74044;SDS011;62389;51.412;5.436;2023-01-19T01:24:01;16.45;;;8.27;;
74044;SDS011;62389;51.412;5.436;2023-01-19T01:26:27;16.80;;;9.45;;
74044;SDS011;62389;51.412;5.436;2023-01-19T01:28:53;17.05;;;8.02;;
74044;SDS011;62389;51.412;5.436;2023-01-19T01:31:18;16.08;;;8.25;;
74044;SDS011;62389;51.412;5.436;2023-01-19T01:33:43;18.85;;;9.48;;
74044;SDS011;62389;51.412;5.436;2023-01-19T01:36:09;18.92;;;9.98;;
74044;SDS011;62389;51.412;5.436;2023-01-19T01:38:36;16.65;;;8.38;;
74044;SDS011;62389;51.412;5.436;2023-01-19T01:41:02;16.83;;;8.18;;
74044;SDS011;62389;51.412;5.436;2023-01-19T01:43:41;16.35;;;7.88;;
74044;SDS011;62389;51.412;5.436;2023-01-19T01:46:12;15.52;;;7.88;;
74044;SDS011;62389;51.412;5.436;2023-01-19T01:48:39;16.65;;;8.18;;
74044;SDS011;62389;51.412;5.436;2023-01-19T01:51:09;15.88;;;8.35;;
74044;SDS011;62389;51.412;5.436;2023-01-19T01:54:11;13.32;;;7.05;;
74044;SDS011;62389;51.412;5.436;2023-01-19T01:56:35;14.27;;;7.80;;
74044;SDS011;62389;51.412;5.436;2023-01-19T01:59:04;16.90;;;7.72;;
74044;SDS011;62389;51.412;5.436;2023-01-19T02:01:32;14.88;;;7.75;;
74044;SDS011;62389;51.412;5.436;2023-01-19T02:04:16;18.52;;;7.60;;
74044;SDS011;62389;51.412;5.436;2023-01-19T02:06:42;12.60;;;6.20;;
74044;SDS011;62389;51.412;5.436;2023-01-19T02:09:26;12.98;;;6.88;;
74044;SDS011;62389;51.412;5.436;2023-01-19T02:12:14;15.73;;;7.65;;
74044;SDS011;62389;51.412;5.436;2023-01-19T02:14:59;10.50;;;6.35;;
74044;SDS011;62389;51.412;5.436;2023-01-19T02:17:24;19.02;;;7.55;;
74044;SDS011;62389;51.412;5.436;2023-01-19T02:19:50;13.05;;;6.97;;
74044;SDS011;62389;51.412;5.436;2023-01-19T02:22:26;14.75;;;7.28;;
74044;SDS011;62389;51.412;5.436;2023-01-19T02:25:00;12.85;;;6.80;;
74044;SDS011;62389;51.412;5.436;2023-01-19T02:27:28;13.27;;;7.03;;
74044;SDS011;62389;51.412;5.436;2023-01-19T02:29:55;16.45;;;8.18;;
74044;SDS011;62389;51.412;5.436;2023-01-19T02:32:21;12.20;;;6.88;;
74044;SDS011;62389;51.412;5.436;2023-01-19T02:34:46;12.43;;;6.88;;
74044;SDS011;62389;51.412;5.436;2023-01-19T02:37:12;14.77;;;7.35;;
74044;SDS011;62389;51.412;5.436;2023-01-19T02:44:54;8.63;;;4.90;;
74044;SDS011;62389;51.412;5.436;2023-01-19T02:47:21;17.02;;;6.22;;
74044;SDS011;62389;51.412;5.436;2023-01-19T02:49:55;14.18;;;6.85;;
74044;SDS011;62389;51.412;5.436;2023-01-19T02:52:21;14.30;;;7.60;;
74044;SDS011;62389;51.412;5.436;2023-01-19T03:03:14;13.15;;;7.13;;
74044;SDS011;62389;51.412;5.436;2023-01-19T03:08:40;15.02;;;7.70;;
74044;SDS011;62389;51.412;5.436;2023-01-19T03:11:15;14.63;;;8.07;;
74044;SDS011;62389;51.412;5.436;2023-01-19T03:19:06;19.58;;;9.65;;
74044;SDS011;62389;51.412;5.436;2023-01-19T03:21:36;18.25;;;8.45;;
74044;SDS011;62389;51.412;5.436;2023-01-19T03:24:06;14.82;;;8.50;;
74044;SDS011;62389;51.412;5.436;2023-01-19T03:26:36;17.70;;;10.20;;
74044;SDS011;62389;51.412;5.436;2023-01-19T03:29:06;20.65;;;11.55;;
74044;SDS011;62389;51.412;5.436;2023-01-19T03:31:36;17.60;;;9.88;;
74044;SDS011;62389;51.412;5.436;2023-01-19T03:34:05;12.40;;;7.10;;
74044;SDS011;62389;51.412;5.436;2023-01-19T03:36:34;15.73;;;7.93;;
74044;SDS011;62389;51.412;5.436;2023-01-19T03:39:04;10.98;;;6.50;;
74044;SDS011;62389;51.412;5.436;2023-01-19T03:41:33;14.68;;;8.38;;
74044;SDS011;62389;51.412;5.436;2023-01-19T03:44:01;19.23;;;11.18;;
74044;SDS011;62389;51.412;5.436;2023-01-19T03:46:30;17.17;;;10.00;;
74044;SDS011;62389;51.412;5.436;2023-01-19T03:48:56;13.68;;;7.65;;
74044;SDS011;62389;51.412;5.436;2023-01-19T03:51:22;12.80;;;6.93;;
74044;SDS011;62389;51.412;5.436;2023-01-19T03:53:48;18.90;;;8.02;;
74044;SDS011;62389;51.412;5.436;2023-01-19T03:56:18;21.83;;;12.48;;
74044;SDS011;62389;51.412;5.436;2023-01-19T03:58:45;16.08;;;8.90;;
74044;SDS011;62389;51.412;5.436;2023-01-19T04:01:11;12.27;;;7.03;;
74044;SDS011;62389;51.412;5.436;2023-01-19T04:03:38;15.10;;;8.38;;
74044;SDS011;62389;51.412;5.436;2023-01-19T04:06:05;16.52;;;8.48;;
74044;SDS011;62389;51.412;5.436;2023-01-19T04:08:30;18.83;;;11.02;;
74044;SDS011;62389;51.412;5.436;2023-01-19T04:10:56;13.98;;;6.88;;
74044;SDS011;62389;51.412;5.436;2023-01-19T04:13:22;14.60;;;7.72;;
74044;SDS011;62389;51.412;5.436;2023-01-19T04:15:48;14.63;;;8.85;;
74044;SDS011;62389;51.412;5.436;2023-01-19T04:18:13;9.80;;;5.60;;
74044;SDS011;62389;51.412;5.436;2023-01-19T04:20:38;11.70;;;7.15;;
74044;SDS011;62389;51.412;5.436;2023-01-19T04:23:04;13.88;;;8.05;;
74044;SDS011;62389;51.412;5.436;2023-01-19T04:25:29;19.10;;;8.20;;
74044;SDS011;62389;51.412;5.436;2023-01-19T04:27:55;14.02;;;7.25;;
74044;SDS011;62389;51.412;5.436;2023-01-19T04:30:22;12.13;;;6.60;;
74044;SDS011;62389;51.412;5.436;2023-01-19T04:32:48;13.50;;;7.82;;
74044;SDS011;62389;51.412;5.436;2023-01-19T04:35:13;12.75;;;7.50;;
74044;SDS011;62389;51.412;5.436;2023-01-19T04:37:39;12.63;;;6.70;;
74044;SDS011;62389;51.412;5.436;2023-01-19T04:40:04;13.27;;;6.65;;
74044;SDS011;62389;51.412;5.436;2023-01-19T04:42:30;14.80;;;8.25;;
74044;SDS011;62389;51.412;5.436;2023-01-19T04:44:56;14.30;;;7.63;;
74044;SDS011;62389;51.412;5.436;2023-01-19T04:47:21;11.88;;;6.53;;
74044;SDS011;62389;51.412;5.436;2023-01-19T04:49:47;15.98;;;8.95;;
74044;SDS011;62389;51.412;5.436;2023-01-19T04:52:12;12.82;;;7.63;;
74044;SDS011;62389;51.412;5.436;2023-01-19T04:54:38;12.93;;;6.85;;
74044;SDS011;62389;51.412;5.436;2023-01-19T04:57:03;12.30;;;7.55;;
74044;SDS011;62389;51.412;5.436;2023-01-19T04:59:28;11.30;;;7.43;;
74044;SDS011;62389;51.412;5.436;2023-01-19T05:01:54;15.25;;;8.25;;
74044;SDS011;62389;51.412;5.436;2023-01-19T05:04:20;15.02;;;8.50;;
74044;SDS011;62389;51.412;5.436;2023-01-19T05:06:46;10.77;;;6.35;;
74044;SDS011;62389;51.412;5.436;2023-01-19T05:09:12;14.73;;;8.05;;
74044;SDS011;62389;51.412;5.436;2023-01-19T05:11:39;13.60;;;6.97;;
74044;SDS011;62389;51.412;5.436;2023-01-19T05:14:05;13.75;;;7.60;;
74044;SDS011;62389;51.412;5.436;2023-01-19T05:16:30;16.27;;;7.95;;
74044;SDS011;62389;51.412;5.436;2023-01-19T05:18:56;17.50;;;9.00;;
74044;SDS011;62389;51.412;5.436;2023-01-19T05:21:21;17.45;;;8.98;;
74044;SDS011;62389;51.412;5.436;2023-01-19T05:23:47;16.38;;;8.63;;
74044;SDS011;62389;51.412;5.436;2023-01-19T05:26:12;15.63;;;8.80;;
74044;SDS011;62389;51.412;5.436;2023-01-19T05:28:38;15.75;;;8.27;;
74044;SDS011;62389;51.412;5.436;2023-01-19T05:31:03;15.80;;;9.15;;
74044;SDS011;62389;51.412;5.436;2023-01-19T05:33:29;16.27;;;8.50;;
74044;SDS011;62389;51.412;5.436;2023-01-19T05:35:55;13.93;;;7.70;;
74044;SDS011;62389;51.412;5.436;2023-01-19T05:38:20;13.63;;;7.55;;
74044;SDS011;62389;51.412;5.436;2023-01-19T05:40:46;17.38;;;8.90;;
74044;SDS011;62389;51.412;5.436;2023-01-19T05:43:12;14.57;;;9.07;;
74044;SDS011;62389;51.412;5.436;2023-01-19T05:45:38;18.40;;;9.70;;
74044;SDS011;62389;51.412;5.436;2023-01-19T05:48:06;16.63;;;8.98;;
74044;SDS011;62389;51.412;5.436;2023-01-19T05:50:33;16.83;;;9.43;;
74044;SDS011;62389;51.412;5.436;2023-01-19T05:52:59;16.83;;;8.30;;
74044;SDS011;62389;51.412;5.436;2023-01-19T05:55:25;17.52;;;8.52;;
74044;SDS011;62389;51.412;5.436;2023-01-19T05:57:52;15.20;;;7.55;;
74044;SDS011;62389;51.412;5.436;2023-01-19T06:00:17;11.35;;;6.85;;
74044;SDS011;62389;51.412;5.436;2023-01-19T06:02:43;12.25;;;6.20;;
74044;SDS011;62389;51.412;5.436;2023-01-19T06:05:10;10.80;;;6.32;;
74044;SDS011;62389;51.412;5.436;2023-01-19T06:07:35;9.43;;;6.20;;
74044;SDS011;62389;51.412;5.436;2023-01-19T06:10:01;11.57;;;5.88;;
74044;SDS011;62389;51.412;5.436;2023-01-19T06:12:26;11.15;;;6.05;;
74044;SDS011;62389;51.412;5.436;2023-01-19T06:14:52;9.10;;;6.13;;
74044;SDS011;62389;51.412;5.436;2023-01-19T06:17:17;11.50;;;5.28;;
74044;SDS011;62389;51.412;5.436;2023-01-19T06:19:43;14.52;;;7.78;;
74044;SDS011;62389;51.412;5.436;2023-01-19T06:22:08;14.07;;;7.05;;
74044;SDS011;62389;51.412;5.436;2023-01-19T06:24:33;14.25;;;8.85;;
74044;SDS011;62389;51.412;5.436;2023-01-19T06:26:59;12.20;;;7.32;;
74044;SDS011;62389;51.412;5.436;2023-01-19T06:29:25;15.43;;;8.00;;
74044;SDS011;62389;51.412;5.436;2023-01-19T06:31:51;16.52;;;8.88;;
74044;SDS011;62389;51.412;5.436;2023-01-19T06:34:16;15.68;;;10.13;;
74044;SDS011;62389;51.412;5.436;2023-01-19T06:36:43;15.73;;;9.25;;
74044;SDS011;62389;51.412;5.436;2023-01-19T06:39:08;18.02;;;10.02;;
74044;SDS011;62389;51.412;5.436;2023-01-19T06:41:34;16.52;;;9.90;;
74044;SDS011;62389;51.412;5.436;2023-01-19T06:44:00;17.10;;;10.00;;
74044;SDS011;62389;51.412;5.436;2023-01-19T06:46:26;17.25;;;10.65;;
74044;SDS011;62389;51.412;5.436;2023-01-19T06:48:52;21.42;;;10.80;;
74044;SDS011;62389;51.412;5.436;2023-01-19T06:51:18;22.52;;;11.27;;
74044;SDS011;62389;51.412;5.436;2023-01-19T06:53:44;21.15;;;12.27;;
74044;SDS011;62389;51.412;5.436;2023-01-19T06:56:10;21.73;;;11.50;;
74044;SDS011;62389;51.412;5.436;2023-01-19T06:58:35;21.95;;;13.15;;
74044;SDS011;62389;51.412;5.436;2023-01-19T07:01:01;20.67;;;11.52;;
74044;SDS011;62389;51.412;5.436;2023-01-19T07:03:28;20.13;;;11.38;;
74044;SDS011;62389;51.412;5.436;2023-01-19T07:05:53;25.95;;;14.82;;
74044;SDS011;62389;51.412;5.436;2023-01-19T07:08:20;19.90;;;12.10;;
74044;SDS011;62389;51.412;5.436;2023-01-19T07:10:46;19.75;;;11.00;;
74044;SDS011;62389;51.412;5.436;2023-01-19T07:13:11;28.38;;;13.70;;
74044;SDS011;62389;51.412;5.436;2023-01-19T07:15:37;21.25;;;10.98;;
74044;SDS011;62389;51.412;5.436;2023-01-19T07:18:03;25.33;;;13.35;;
74044;SDS011;62389;51.412;5.436;2023-01-19T07:20:32;23.73;;;12.77;;
74044;SDS011;62389;51.412;5.436;2023-01-19T07:22:58;23.58;;;13.57;;
74044;SDS011;62389;51.412;5.436;2023-01-19T07:25:23;23.67;;;12.35;;
74044;SDS011;62389;51.412;5.436;2023-01-19T07:27:49;22.75;;;11.82;;
74044;SDS011;62389;51.412;5.436;2023-01-19T07:30:14;21.63;;;11.98;;
74044;SDS011;62389;51.412;5.436;2023-01-19T07:32:40;22.77;;;11.85;;
74044;SDS011;62389;51.412;5.436;2023-01-19T07:35:09;25.00;;;14.05;;
74044;SDS011;62389;51.412;5.436;2023-01-19T07:37:34;23.67;;;12.93;;
74044;SDS011;62389;51.412;5.436;2023-01-19T07:40:01;29.20;;;12.98;;
74044;SDS011;62389;51.412;5.436;2023-01-19T07:42:27;29.42;;;15.10;;
74044;SDS011;62389;51.412;5.436;2023-01-19T07:44:52;27.00;;;13.82;;
74044;SDS011;62389;51.412;5.436;2023-01-19T07:47:18;25.92;;;14.05;;
74044;SDS011;62389;51.412;5.436;2023-01-19T07:49:44;23.70;;;13.10;;
74044;SDS011;62389;51.412;5.436;2023-01-19T07:52:09;26.92;;;14.07;;
74044;SDS011;62389;51.412;5.436;2023-01-19T07:54:34;33.90;;;16.30;;
74044;SDS011;62389;51.412;5.436;2023-01-19T07:57:00;31.95;;;16.15;;
74044;SDS011;62389;51.412;5.436;2023-01-19T07:59:26;29.90;;;14.07;;
74044;SDS011;62389;51.412;5.436;2023-01-19T08:01:54;36.28;;;13.70;;
74044;SDS011;62389;51.412;5.436;2023-01-19T08:04:20;42.75;;;21.85;;
74044;SDS011;62389;51.412;5.436;2023-01-19T08:06:45;29.08;;;14.07;;
74044;SDS011;62389;51.412;5.436;2023-01-19T08:09:11;30.83;;;12.85;;
74044;SDS011;62389;51.412;5.436;2023-01-19T08:11:37;32.90;;;14.38;;
74044;SDS011;62389;51.412;5.436;2023-01-19T08:14:03;31.52;;;14.90;;
74044;SDS011;62389;51.412;5.436;2023-01-19T08:16:28;39.28;;;17.85;;
74044;SDS011;62389;51.412;5.436;2023-01-19T08:18:54;32.35;;;14.55;;
74044;SDS011;62389;51.412;5.436;2023-01-19T08:21:19;31.40;;;15.00;;
74044;SDS011;62389;51.412;5.436;2023-01-19T08:23:55;34.28;;;14.18;;
74044;SDS011;62389;51.412;5.436;2023-01-19T08:26:31;33.95;;;14.45;;
74044;SDS011;62389;51.412;5.436;2023-01-19T08:28:59;35.10;;;16.73;;
74044;SDS011;62389;51.412;5.436;2023-01-19T08:31:27;34.53;;;16.30;;
74044;SDS011;62389;51.412;5.436;2023-01-19T08:33:52;32.05;;;13.23;;
74044;SDS011;62389;51.412;5.436;2023-01-19T08:36:18;31.42;;;13.15;;
74044;SDS011;62389;51.412;5.436;2023-01-19T08:38:44;35.40;;;15.20;;
74044;SDS011;62389;51.412;5.436;2023-01-19T08:41:10;34.90;;;18.15;;
74044;SDS011;62389;51.412;5.436;2023-01-19T08:43:36;27.60;;;12.68;;
74044;SDS011;62389;51.412;5.436;2023-01-19T08:46:05;38.10;;;15.68;;
74044;SDS011;62389;51.412;5.436;2023-01-19T08:48:30;31.83;;;14.50;;
74044;SDS011;62389;51.412;5.436;2023-01-19T08:50:56;24.13;;;13.82;;
74044;SDS011;62389;51.412;5.436;2023-01-19T08:53:23;37.67;;;14.88;;
74044;SDS011;62389;51.412;5.436;2023-01-19T08:55:49;42.05;;;18.40;;
74044;SDS011;62389;51.412;5.436;2023-01-19T08:58:18;32.67;;;13.07;;
74044;SDS011;62389;51.412;5.436;2023-01-19T09:00:44;35.97;;;14.73;;
74044;SDS011;62389;51.412;5.436;2023-01-19T09:03:10;31.85;;;14.93;;
74044;SDS011;62389;51.412;5.436;2023-01-19T09:05:37;34.50;;;15.85;;
74044;SDS011;62389;51.412;5.436;2023-01-19T09:08:04;38.70;;;15.73;;
74044;SDS011;62389;51.412;5.436;2023-01-19T09:10:32;33.13;;;15.38;;
74044;SDS011;62389;51.412;5.436;2023-01-19T09:13:06;38.08;;;15.75;;
74044;SDS011;62389;51.412;5.436;2023-01-19T09:15:35;38.75;;;15.32;;
74044;SDS011;62389;51.412;5.436;2023-01-19T09:18:02;27.48;;;12.38;;
74044;SDS011;62389;51.412;5.436;2023-01-19T09:20:29;28.45;;;12.88;;
74044;SDS011;62389;51.412;5.436;2023-01-19T09:22:58;37.08;;;16.13;;
74044;SDS011;62389;51.412;5.436;2023-01-19T09:25:23;35.95;;;17.35;;
74044;SDS011;62389;51.412;5.436;2023-01-19T09:27:49;32.38;;;12.57;;
74044;SDS011;62389;51.412;5.436;2023-01-19T09:30:15;32.05;;;14.73;;
74044;SDS011;62389;51.412;5.436;2023-01-19T09:32:41;30.98;;;15.10;;
74044;SDS011;62389;51.412;5.436;2023-01-19T09:35:07;35.45;;;14.57;;
74044;SDS011;62389;51.412;5.436;2023-01-19T09:37:33;35.13;;;14.48;;
74044;SDS011;62389;51.412;5.436;2023-01-19T09:39:58;36.03;;;15.02;;
74044;SDS011;62389;51.412;5.436;2023-01-19T09:45:11;31.33;;;14.30;;
74044;SDS011;62389;51.412;5.436;2023-01-19T09:47:41;31.40;;;13.20;;
74044;SDS011;62389;51.412;5.436;2023-01-19T09:50:14;28.98;;;13.15;;
74044;SDS011;62389;51.412;5.436;2023-01-19T09:52:55;31.75;;;13.23;;
74044;SDS011;62389;51.412;5.436;2023-01-19T09:55:26;33.47;;;12.30;;
74044;SDS011;62389;51.412;5.436;2023-01-19T09:57:52;26.55;;;12.73;;
74044;SDS011;62389;51.412;5.436;2023-01-19T10:00:18;31.27;;;13.05;;
74044;SDS011;62389;51.412;5.436;2023-01-19T10:02:57;25.52;;;12.23;;
74044;SDS011;62389;51.412;5.436;2023-01-19T10:05:33;27.08;;;12.98;;
74044;SDS011;62389;51.412;5.436;2023-01-19T10:11:03;23.58;;;11.43;;
74044;SDS011;62389;51.412;5.436;2023-01-19T10:13:47;28.38;;;13.27;;
74044;SDS011;62389;51.412;5.436;2023-01-19T10:18:43;23.77;;;11.30;;
74044;SDS011;62389;51.412;5.436;2023-01-19T10:23:56;27.65;;;12.95;;
74044;SDS011;62389;51.412;5.436;2023-01-19T10:26:31;22.92;;;12.32;;
74044;SDS011;62389;51.412;5.436;2023-01-19T10:31:47;25.13;;;12.23;;
74044;SDS011;62389;51.412;5.436;2023-01-19T10:34:16;25.30;;;12.02;;
74044;SDS011;62389;51.412;5.436;2023-01-19T10:36:44;27.85;;;12.05;;
74044;SDS011;62389;51.412;5.436;2023-01-19T10:39:13;25.17;;;13.00;;
74044;SDS011;62389;51.412;5.436;2023-01-19T10:41:51;26.27;;;12.02;;
74044;SDS011;62389;51.412;5.436;2023-01-19T10:44:24;27.65;;;13.13;;
74044;SDS011;62389;51.412;5.436;2023-01-19T10:46:52;23.92;;;11.60;;
74044;SDS011;62389;51.412;5.436;2023-01-19T10:52:00;26.35;;;12.55;;
74044;SDS011;62389;51.412;5.436;2023-01-19T10:54:27;21.75;;;10.73;;
74044;SDS011;62389;51.412;5.436;2023-01-19T10:57:00;30.60;;;14.13;;
74044;SDS011;62389;51.412;5.436;2023-01-19T11:02:15;22.80;;;12.15;;
74044;SDS011;62389;51.412;5.436;2023-01-19T11:04:51;27.48;;;12.73;;
74044;SDS011;62389;51.412;5.436;2023-01-19T11:07:19;24.27;;;12.38;;
74044;SDS011;62389;51.412;5.436;2023-01-19T11:09:45;24.80;;;11.82;;
74044;SDS011;62389;51.412;5.436;2023-01-19T11:12:15;23.23;;;11.68;;
74044;SDS011;62389;51.412;5.436;2023-01-19T11:14:44;26.40;;;12.63;;
74044;SDS011;62389;51.412;5.436;2023-01-19T11:17:20;25.52;;;11.48;;
74044;SDS011;62389;51.412;5.436;2023-01-19T11:19:53;25.60;;;10.77;;
74044;SDS011;62389;51.412;5.436;2023-01-19T11:22:28;23.75;;;12.35;;
74044;SDS011;62389;51.412;5.436;2023-01-19T11:25:00;28.38;;;12.63;;
74044;SDS011;62389;51.412;5.436;2023-01-19T11:27:27;22.63;;;11.85;;
74044;SDS011;62389;51.412;5.436;2023-01-19T11:30:02;29.48;;;10.80;;
74044;SDS011;62389;51.412;5.436;2023-01-19T11:32:34;21.08;;;10.88;;
74044;SDS011;62389;51.412;5.436;2023-01-19T11:35:01;19.05;;;10.10;;
74044;SDS011;62389;51.412;5.436;2023-01-19T11:37:47;21.42;;;9.65;;
74044;SDS011;62389;51.412;5.436;2023-01-19T11:40:14;21.98;;;9.88;;
74044;SDS011;62389;51.412;5.436;2023-01-19T11:42:40;18.58;;;10.18;;
74044;SDS011;62389;51.412;5.436;2023-01-19T11:45:24;22.48;;;9.93;;
74044;SDS011;62389;51.412;5.436;2023-01-19T11:47:50;19.27;;;9.60;;
74044;SDS011;62389;51.412;5.436;2023-01-19T11:50:20;18.17;;;9.00;;
74044;SDS011;62389;51.412;5.436;2023-01-19T11:55:20;19.38;;;9.77;;
74044;SDS011;62389;51.412;5.436;2023-01-19T11:57:52;18.50;;;8.65;;
74044;SDS011;62389;51.412;5.436;2023-01-19T12:03:23;22.95;;;8.45;;
74044;SDS011;62389;51.412;5.436;2023-01-19T12:05:50;26.42;;;9.50;;
74044;SDS011;62389;51.412;5.436;2023-01-19T12:08:23;17.65;;;8.60;;
74044;SDS011;62389;51.412;5.436;2023-01-19T12:10:54;18.40;;;10.45;;
74044;SDS011;62389;51.412;5.436;2023-01-19T12:13:22;17.63;;;9.57;;
74044;SDS011;62389;51.412;5.436;2023-01-19T12:16:12;27.17;;;8.60;;
74044;SDS011;62389;51.412;5.436;2023-01-19T12:18:43;17.23;;;9.30;;
74044;SDS011;62389;51.412;5.436;2023-01-19T12:21:12;18.05;;;8.60;;
74044;SDS011;62389;51.412;5.436;2023-01-19T12:29:02;19.38;;;8.52;;
74044;SDS011;62389;51.412;5.436;2023-01-19T12:31:39;18.23;;;8.05;;
74044;SDS011;62389;51.412;5.436;2023-01-19T12:36:47;15.50;;;7.07;;
74044;SDS011;62389;51.412;5.436;2023-01-19T12:39:18;14.20;;;7.53;;
74044;SDS011;62389;51.412;5.436;2023-01-19T12:41:45;13.20;;;7.15;;
74044;SDS011;62389;51.412;5.436;2023-01-19T12:57:37;14.88;;;8.15;;
74044;SDS011;62389;51.412;5.436;2023-01-19T13:02:48;17.92;;;8.07;;
74044;SDS011;62389;51.412;5.436;2023-01-19T13:05:17;19.35;;;8.68;;
74044;SDS011;62389;51.412;5.436;2023-01-19T13:18:42;18.83;;;10.15;;
74044;SDS011;62389;51.412;5.436;2023-01-19T13:21:12;22.27;;;8.70;;
74044;SDS011;62389;51.412;5.436;2023-01-19T13:23:53;18.42;;;9.70;;
74044;SDS011;62389;51.412;5.436;2023-01-19T13:26:21;20.10;;;9.45;;
74044;SDS011;62389;51.412;5.436;2023-01-19T13:28:50;22.00;;;9.38;;
74044;SDS011;62389;51.412;5.436;2023-01-19T13:31:18;22.15;;;11.30;;
74044;SDS011;62389;51.412;5.436;2023-01-19T13:36:20;20.38;;;9.43;;
74044;SDS011;62389;51.412;5.436;2023-01-19T13:39:00;21.67;;;8.70;;
74044;SDS011;62389;51.412;5.436;2023-01-19T13:41:30;23.08;;;10.15;;
74044;SDS011;62389;51.412;5.436;2023-01-19T13:44:01;21.02;;;10.10;;
74044;SDS011;62389;51.412;5.436;2023-01-19T13:46:33;24.00;;;9.75;;
74044;SDS011;62389;51.412;5.436;2023-01-19T13:49:16;21.90;;;10.02;;
74044;SDS011;62389;51.412;5.436;2023-01-19T13:51:45;21.33;;;11.38;;
74044;SDS011;62389;51.412;5.436;2023-01-19T13:54:14;24.95;;;9.88;;
74044;SDS011;62389;51.412;5.436;2023-01-19T13:56:45;24.85;;;10.73;;
74044;SDS011;62389;51.412;5.436;2023-01-19T13:59:13;19.10;;;10.32;;
74044;SDS011;62389;51.412;5.436;2023-01-19T14:01:40;32.60;;;10.52;;
74044;SDS011;62389;51.412;5.436;2023-01-19T14:06:53;28.92;;;10.68;;
74044;SDS011;62389;51.412;5.436;2023-01-19T14:09:21;25.77;;;10.50;;
74044;SDS011;62389;51.412;5.436;2023-01-19T14:12:32;26.38;;;10.60;;
74044;SDS011;62389;51.412;5.436;2023-01-19T14:14:38;24.08;;;10.85;;
74044;SDS011;62389;51.412;5.436;2023-01-19T14:17:05;19.30;;;9.13;;
74044;SDS011;62389;51.412;5.436;2023-01-19T14:19:53;23.85;;;10.52;;
74044;SDS011;62389;51.412;5.436;2023-01-19T14:22:20;21.77;;;9.75;;
74044;SDS011;62389;51.412;5.436;2023-01-19T14:25:19;23.17;;;9.93;;
74044;SDS011;62389;51.412;5.436;2023-01-19T14:30:56;21.30;;;9.95;;
74044;SDS011;62389;51.412;5.436;2023-01-19T14:33:35;19.73;;;9.20;;
74044;SDS011;62389;51.412;5.436;2023-01-19T14:38:37;24.25;;;8.60;;
74044;SDS011;62389;51.412;5.436;2023-01-19T14:41:09;22.63;;;9.07;;
74044;SDS011;62389;51.412;5.436;2023-01-19T14:43:35;18.38;;;8.95;;
74044;SDS011;62389;51.412;5.436;2023-01-19T14:46:01;29.42;;;8.80;;
74044;SDS011;62389;51.412;5.436;2023-01-19T14:48:26;23.42;;;9.73;;
74044;SDS011;62389;51.412;5.436;2023-01-19T14:50:58;24.35;;;8.68;;
74044;SDS011;62389;51.412;5.436;2023-01-19T14:53:26;25.38;;;8.90;;
74044;SDS011;62389;51.412;5.436;2023-01-19T14:55:56;22.73;;;8.02;;
74044;SDS011;62389;51.412;5.436;2023-01-19T14:58:26;19.58;;;8.38;;
74044;SDS011;62389;51.412;5.436;2023-01-19T15:00:55;19.17;;;9.35;;
74044;SDS011;62389;51.412;5.436;2023-01-19T15:03:21;20.30;;;8.50;;
74044;SDS011;62389;51.412;5.436;2023-01-19T15:05:47;21.77;;;10.50;;
74044;SDS011;62389;51.412;5.436;2023-01-19T15:08:18;19.08;;;8.60;;
74044;SDS011;62389;51.412;5.436;2023-01-19T15:10:48;21.98;;;8.80;;
74044;SDS011;62389;51.412;5.436;2023-01-19T15:13:17;19.60;;;9.98;;
74044;SDS011;62389;51.412;5.436;2023-01-19T15:15:47;22.20;;;9.02;;
74044;SDS011;62389;51.412;5.436;2023-01-19T15:18:15;17.35;;;7.72;;
74044;SDS011;62389;51.412;5.436;2023-01-19T15:20:43;24.00;;;10.48;;
74044;SDS011;62389;51.412;5.436;2023-01-19T15:23:09;19.27;;;8.38;;
74044;SDS011;62389;51.412;5.436;2023-01-19T15:25:35;18.77;;;8.27;;
74044;SDS011;62389;51.412;5.436;2023-01-19T15:28:12;19.70;;;8.10;;
74044;SDS011;62389;51.412;5.436;2023-01-19T15:30:40;20.60;;;9.27;;
74044;SDS011;62389;51.412;5.436;2023-01-19T15:33:08;22.08;;;8.15;;
74044;SDS011;62389;51.412;5.436;2023-01-19T15:35:46;22.17;;;9.07;;
74044;SDS011;62389;51.412;5.436;2023-01-19T15:38:11;22.98;;;9.50;;
74044;SDS011;62389;51.412;5.436;2023-01-19T15:40:36;24.23;;;8.82;;
74044;SDS011;62389;51.412;5.436;2023-01-19T15:43:02;28.20;;;10.68;;
74044;SDS011;62389;51.412;5.436;2023-01-19T15:45:32;25.58;;;9.02;;
74044;SDS011;62389;51.412;5.436;2023-01-19T15:48:02;18.50;;;8.30;;
74044;SDS011;62389;51.412;5.436;2023-01-19T15:50:46;18.38;;;8.85;;
74044;SDS011;62389;51.412;5.436;2023-01-19T15:53:12;30.90;;;9.80;;
74044;SDS011;62389;51.412;5.436;2023-01-19T15:55:40;22.10;;;10.00;;
74044;SDS011;62389;51.412;5.436;2023-01-19T15:58:06;23.73;;;9.45;;
74044;SDS011;62389;51.412;5.436;2023-01-19T16:00:32;24.90;;;10.93;;
74044;SDS011;62389;51.412;5.436;2023-01-19T16:02:58;21.65;;;9.38;;
74044;SDS011;62389;51.412;5.436;2023-01-19T16:05:25;17.10;;;7.20;;
74044;SDS011;62389;51.412;5.436;2023-01-19T16:07:50;26.42;;;10.77;;